HURR62 EGXC-EGSU

Flight info

Callsign HURR62
Flight time 0h 22m
Altitude 1500
Route OPR
Aircraft HURI/L-VGD/N

Departure

Time 2026-04-20 16:41
Airport RAF Coningsby (EGXC)

Arrival

Time 2026-04-20 17:03
Airport Duxford Aerodrome (EGSU)
Time Latitude Longitude Altitude Speed Heading
2026-04-20 16:33 53.09607 -0.18113 25 ft 0 kts 150°
2026-04-20 16:36 53.09605 -0.18111 25 ft 2 kts 138°
2026-04-20 16:36 53.09570 -0.18108 130 ft 9 kts 200°
2026-04-20 16:36 53.09504 -0.18185 27 ft 15 kts 209°
2026-04-20 16:37 53.09399 -0.18269 26 ft 18 kts 201°
2026-04-20 16:37 53.09293 -0.18319 25 ft 14 kts 151°
2026-04-20 16:37 53.09248 -0.18196 23 ft 11 kts 112°
2026-04-20 16:37 53.09220 -0.18083 23 ft 11 kts 113°
2026-04-20 16:38 53.09191 -0.17969 23 ft 11 kts 115°
2026-04-20 16:38 53.09157 -0.17849 24 ft 12 kts 119°
2026-04-20 16:38 53.09086 -0.17797 23 ft 14 kts 227°
2026-04-20 16:38 53.09068 -0.17951 23 ft 11 kts 241°
2026-04-20 16:39 53.09052 -0.17918 23 ft 5 kts 71°
2026-04-20 16:39 53.09055 -0.17904 23 ft 0 kts 70°
2026-04-20 16:40 53.09073 -0.17821 23 ft 30 kts 69°
2026-04-20 16:40 53.09193 -0.17190 78 ft 79 kts 70°
2026-04-20 16:40 53.09366 -0.16278 311 ft 91 kts 71°
2026-04-20 16:41 53.09512 -0.15188 584 ft 110 kts 92°
2026-04-20 16:41 53.08947 -0.14101 737 ft 151 kts 154°
2026-04-20 16:41 53.07824 -0.14024 981 ft 168 kts 180°
2026-04-20 16:41 53.06687 -0.14146 1457 ft 162 kts 178°
2026-04-20 16:42 53.05506 -0.14217 1645 ft 177 kts 177°
2026-04-20 16:42 53.04234 -0.14247 1720 ft 187 kts 176°
2026-04-20 16:42 53.02914 -0.14227 1833 ft 192 kts 174°
2026-04-20 16:42 53.01571 -0.14113 1966 ft 194 kts 173°
2026-04-20 16:43 53.00198 -0.13922 1923 ft 205 kts 171°
2026-04-20 16:43 52.98740 -0.13653 1777 ft 214 kts 170°
2026-04-20 16:43 52.97270 -0.13357 1723 ft 210 kts 169°
2026-04-20 16:43 52.95832 -0.13000 1669 ft 207 kts 167°
2026-04-20 16:44 52.94427 -0.12636 1682 ft 202 kts 168°
2026-04-20 16:44 52.93049 -0.12278 1685 ft 200 kts 167°
2026-04-20 16:44 52.91676 -0.11892 1642 ft 201 kts 166°
2026-04-20 16:44 52.90315 -0.11450 1683 ft 197 kts 165°
2026-04-20 16:45 52.88984 -0.10982 1667 ft 198 kts 163°
2026-04-20 16:45 52.87618 -0.10409 1475 ft 206 kts 162°
2026-04-20 16:45 52.86234 -0.09888 1500 ft 202 kts 165°
2026-04-20 16:45 52.84858 -0.09475 1520 ft 200 kts 167°
2026-04-20 16:46 52.83482 -0.09101 1480 ft 201 kts 167°
2026-04-20 16:46 52.82104 -0.08747 1350 ft 205 kts 169°
2026-04-20 16:46 52.80708 -0.08468 1438 ft 196 kts 170°
2026-04-20 16:46 52.79358 -0.08403 1456 ft 194 kts 180°
2026-04-20 16:47 52.78036 -0.08550 1600 ft 188 kts 181°
2026-04-20 16:47 52.76760 -0.08666 1793 ft 179 kts 178°
2026-04-20 16:47 52.75489 -0.08696 1801 ft 185 kts 176°
2026-04-20 16:47 52.74205 -0.08759 1875 ft 185 kts 180°
2026-04-20 16:48 52.72925 -0.08871 1949 ft 186 kts 179°
2026-04-20 16:48 52.71597 -0.08865 1840 ft 193 kts 174°
2026-04-20 16:48 52.70271 -0.08540 1799 ft 194 kts 163°
2026-04-20 16:48 52.68976 -0.08002 1875 ft 190 kts 161°
2026-04-20 16:49 52.67698 -0.07422 1847 ft 192 kts 161°
2026-04-20 16:49 52.66407 -0.06860 1794 ft 196 kts 161°
2026-04-20 16:49 52.65076 -0.06318 1796 ft 196 kts 163°
2026-04-20 16:49 52.63756 -0.05788 1830 ft 195 kts 162°
2026-04-20 16:50 52.62457 -0.05229 1900 ft 191 kts 161°
2026-04-20 16:50 52.61183 -0.04660 1980 ft 188 kts 162°
2026-04-20 16:50 52.59923 -0.04059 2039 ft 191 kts 159°
2026-04-20 16:50 52.58629 -0.03408 1961 ft 197 kts 160°
2026-04-20 16:51 52.57308 -0.02776 1927 ft 198 kts 161°
2026-04-20 16:51 52.55986 -0.02125 1861 ft 200 kts 159°
2026-04-20 16:51 52.54669 -0.01407 1851 ft 198 kts 158°
2026-04-20 16:51 52.53368 -0.00656 1790 ft 200 kts 156°
2026-04-20 16:52 52.52057 0.00166 1727 ft 201 kts 155°
2026-04-20 16:52 52.50748 0.00953 1810 ft 198 kts 158°
2026-04-20 16:52 52.49460 0.01722 1855 ft 197 kts 156°
2026-04-20 16:52 52.48174 0.02492 1912 ft 196 kts 162°
2026-04-20 16:53 52.46851 0.02802 2045 ft 192 kts 177°
2026-04-20 16:53 52.45513 0.02635 2095 ft 193 kts 184°
2026-04-20 16:53 52.44170 0.02421 2126 ft 194 kts 184°
2026-04-20 16:53 52.42818 0.02234 2122 ft 196 kts 183°
2026-04-20 16:54 52.41443 0.02087 2100 ft 199 kts 182°
2026-04-20 16:54 52.40047 0.01929 2008 ft 203 kts 183°
2026-04-20 16:54 52.38641 0.01787 1982 ft 203 kts 181°
2026-04-20 16:54 52.37218 0.01719 1930 ft 202 kts 179°
2026-04-20 16:55 52.35826 0.01666 1979 ft 198 kts 181°
2026-04-20 16:55 52.34463 0.01555 2081 ft 195 kts 180°
2026-04-20 16:55 52.33101 0.01462 2071 ft 196 kts 181°
2026-04-20 16:55 52.31733 0.01378 2105 ft 197 kts 180°
2026-04-20 16:56 52.30367 0.01320 2177 ft 196 kts 179°
2026-04-20 16:56 52.29009 0.01329 2219 ft 194 kts 176°
2026-04-20 16:56 52.27669 0.01378 2298 ft 192 kts 178°
2026-04-20 16:56 52.26781 0.01371 2286 ft 195 kts 179°
2026-04-20 16:57 52.24945 0.01410 2145 ft 204 kts 176°
2026-04-20 16:57 52.23978 0.01476 2065 ft 208 kts 176°
2026-04-20 16:57 52.22545 0.01655 2063 ft 206 kts 174°
2026-04-20 16:57 52.21122 0.01821 2008 ft 207 kts 173°
2026-04-20 16:58 52.19711 0.02076 2054 ft 205 kts 173°
2026-04-20 16:58 52.18278 0.02373 1968 ft 209 kts 170°
2026-04-20 16:58 52.16851 0.02747 1931 ft 208 kts 168°
2026-04-20 16:58 52.15433 0.03154 1908 ft 205 kts 168°
2026-04-20 16:59 52.14049 0.03600 1901 ft 201 kts 168°
2026-04-20 16:59 52.12667 0.04056 1809 ft 204 kts 167°
2026-04-20 16:59 52.11251 0.04590 1530 ft 214 kts 165°
2026-04-20 16:59 52.09790 0.05227 1226 ft 218 kts 162°
2026-04-20 17:00 52.07662 0.07479 833 ft 157 kts 101°
2026-04-20 17:00 52.07743 0.09055 702 ft 132 kts 69°
2026-04-20 17:00 52.08130 0.10343 572 ft 122 kts 57°
2026-04-20 17:01 52.08530 0.11513 515 ft 119 kts 56°
2026-04-20 17:01 52.08975 0.12620 466 ft 114 kts 55°
2026-04-20 17:01 52.09239 0.13742 606 ft 104 kts 106°
2026-04-20 17:01 52.08639 0.14221 780 ft 109 kts 191°
2026-04-20 17:02 52.08117 0.13415 838 ft 109 kts 240°
2026-04-20 17:02 52.07728 0.12402 822 ft 100 kts 242°
2026-04-20 17:02 52.07618 0.11478 661 ft 79 kts 310°
2026-04-20 17:02 52.08065 0.11238 486 ft 72 kts 15°
2026-04-20 17:03 52.08462 0.11683 276 ft 68 kts 48°
2026-04-20 17:03 52.08715 0.12281 150 ft 60 kts 55°
2026-04-20 17:03 52.08897 0.12759 125 ft 37 kts 54°
2026-04-20 17:03 52.09003 0.13024 122 ft 22 kts 59°
2026-04-20 17:04 52.09078 0.13223 122 ft 20 kts 57°
2026-04-20 17:04 52.09155 0.13410 120 ft 21 kts 57°
2026-04-20 17:04 52.09236 0.13622 115 ft 23 kts 58°
2026-04-20 17:04 52.09313 0.13826 112 ft 14 kts 59°
2026-04-20 17:05 52.09369 0.13923 110 ft 10 kts
2026-04-20 17:05 52.09419 0.13868 113 ft 12 kts 311°
2026-04-20 17:05 52.09482 0.13757 113 ft 13 kts 332°
2026-04-20 17:05 52.09548 0.13784 112 ft 9 kts 53°
2026-04-20 17:06 52.09547 0.13852 112 ft 0 kts 167°